Wing, North Dakota
Current Conditions -  °F | °C
As of 4:52 PM on Monday 22 Dec 2014 (Local Time) from KBIS Reporting Station
Overcast Overcast  
Wind Chill: 21°   Ceiling: 700
Heat Index: 31°   Visibility: 7mi
Dew Point: 30°   Wind: 14mph
Humidity: 96%   Direction: 350°N
Pressure: 29.6"   Gusts: 22mph
Location:  47.14°N, 100.28°W
Report Text: KBIS 222252Z 35012G19KT 7SM OVC007 M01/M01 A2960 RMK AO2 CIG 007V011 SLP043 I1000 T10061011
Loading
Personal Weather Stations






























Interactive Weather Map New forecast layout! Learn more

10-Day Weather Forecast

Advertisements
Track Severe Weather on mobile